sensor_id;sensor_type;location;lat;lon;timestamp;pressure;altitude;pressure_sealevel;temperature;humidity
36526;BME280;74736;46.798;9.824;2024-02-23T00:01:23;84362.76;;;1.13;45.86
36526;BME280;74736;46.798;9.824;2024-02-23T00:03:50;84365.79;;;0.77;46.03
36526;BME280;74736;46.798;9.824;2024-02-23T00:06:18;84365.19;;;1.48;45.72
36526;BME280;74736;46.798;9.824;2024-02-23T00:08:45;84366.91;;;-0.34;48.54
36526;BME280;74736;46.798;9.824;2024-02-23T00:11:12;84368.96;;;0.29;49.06
36526;BME280;74736;46.798;9.824;2024-02-23T00:13:39;84363.21;;;0.43;49.16
36526;BME280;74736;46.798;9.824;2024-02-23T00:16:07;84366.32;;;1.10;48.30
36526;BME280;74736;46.798;9.824;2024-02-23T00:18:34;84374.79;;;0.52;47.45
36526;BME280;74736;46.798;9.824;2024-02-23T00:21:02;84380.31;;;0.83;47.20
36526;BME280;74736;46.798;9.824;2024-02-23T00:23:30;84384.05;;;0.64;47.30
36526;BME280;74736;46.798;9.824;2024-02-23T00:25:57;84387.69;;;0.34;47.79
36526;BME280;74736;46.798;9.824;2024-02-23T00:28:24;84390.31;;;0.29;48.11
36526;BME280;74736;46.798;9.824;2024-02-23T00:30:52;84396.32;;;0.52;48.66
36526;BME280;74736;46.798;9.824;2024-02-23T00:33:19;84403.21;;;-0.54;49.12
36526;BME280;74736;46.798;9.824;2024-02-23T00:35:46;84402.24;;;-0.07;48.86
36526;BME280;74736;46.798;9.824;2024-02-23T00:38:14;84402.88;;;-0.88;48.91
36526;BME280;74736;46.798;9.824;2024-02-23T00:40:42;84398.65;;;-0.91;49.99
36526;BME280;74736;46.798;9.824;2024-02-23T00:43:08;84396.72;;;-1.02;49.93
36526;BME280;74736;46.798;9.824;2024-02-23T00:45:36;84400.34;;;0.05;49.01
36526;BME280;74736;46.798;9.824;2024-02-23T00:48:03;84397.50;;;0.51;48.60
36526;BME280;74736;46.798;9.824;2024-02-23T00:50:30;84395.98;;;-0.20;49.88
36526;BME280;74736;46.798;9.824;2024-02-23T00:52:58;84395.27;;;-0.76;52.12
36526;BME280;74736;46.798;9.824;2024-02-23T00:55:25;84396.87;;;-0.46;50.06
36526;BME280;74736;46.798;9.824;2024-02-23T00:57:53;84392.77;;;-0.16;49.06
36526;BME280;74736;46.798;9.824;2024-02-23T01:00:20;84400.83;;;-0.95;49.58
36526;BME280;74736;46.798;9.824;2024-02-23T01:02:47;84403.63;;;-1.12;49.12
36526;BME280;74736;46.798;9.824;2024-02-23T01:05:15;84406.78;;;-0.44;48.72
36526;BME280;74736;46.798;9.824;2024-02-23T01:07:42;84410.88;;;-1.13;48.68
36526;BME280;74736;46.798;9.824;2024-02-23T01:10:09;84408.87;;;-1.02;49.00
36526;BME280;74736;46.798;9.824;2024-02-23T01:12:37;84410.15;;;-1.51;50.82
36526;BME280;74736;46.798;9.824;2024-02-23T01:15:05;84411.84;;;-1.40;50.55
36526;BME280;74736;46.798;9.824;2024-02-23T01:17:32;84414.52;;;-1.08;49.79
36526;BME280;74736;46.798;9.824;2024-02-23T01:19:59;84412.30;;;-2.46;50.91
36526;BME280;74736;46.798;9.824;2024-02-23T01:22:27;84410.12;;;-2.38;51.26
36526;BME280;74736;46.798;9.824;2024-02-23T01:24:54;84408.94;;;-3.27;52.64
36526;BME280;74736;46.798;9.824;2024-02-23T01:27:22;84409.92;;;-3.25;54.35
36526;BME280;74736;46.798;9.824;2024-02-23T01:29:49;84406.34;;;-3.00;55.15
36526;BME280;74736;46.798;9.824;2024-02-23T01:32:15;84405.41;;;-3.09;55.23
36526;BME280;74736;46.798;9.824;2024-02-23T01:34:43;84404.21;;;-4.14;57.21
36526;BME280;74736;46.798;9.824;2024-02-23T01:37:09;84406.58;;;-2.37;54.55
36526;BME280;74736;46.798;9.824;2024-02-23T01:39:37;84400.16;;;-3.22;53.82
36526;BME280;74736;46.798;9.824;2024-02-23T01:42:04;84400.64;;;-2.45;55.37
36526;BME280;74736;46.798;9.824;2024-02-23T01:44:32;84395.82;;;-3.57;55.79
36526;BME280;74736;46.798;9.824;2024-02-23T01:46:59;84391.35;;;-3.71;55.06
36526;BME280;74736;46.798;9.824;2024-02-23T01:49:27;84386.01;;;-2.89;52.93
36526;BME280;74736;46.798;9.824;2024-02-23T01:51:55;84385.09;;;-3.18;54.28
36526;BME280;74736;46.798;9.824;2024-02-23T01:54:22;84383.14;;;-3.35;54.93
36526;BME280;74736;46.798;9.824;2024-02-23T01:56:50;84382.48;;;-2.81;53.32
36526;BME280;74736;46.798;9.824;2024-02-23T01:59:17;84378.77;;;-3.02;53.68
36526;BME280;74736;46.798;9.824;2024-02-23T02:01:45;84373.07;;;-2.97;52.61
36526;BME280;74736;46.798;9.824;2024-02-23T02:04:13;84370.46;;;-3.91;55.34
36526;BME280;74736;46.798;9.824;2024-02-23T02:06:39;84373.14;;;-3.51;54.25
36526;BME280;74736;46.798;9.824;2024-02-23T02:09:07;84364.86;;;-3.32;52.41
36526;BME280;74736;46.798;9.824;2024-02-23T02:11:34;84362.68;;;-3.47;53.36
36526;BME280;74736;46.798;9.824;2024-02-23T02:14:01;84365.86;;;-3.84;54.03
36526;BME280;74736;46.798;9.824;2024-02-23T02:16:28;84366.90;;;-3.28;54.49
36526;BME280;74736;46.798;9.824;2024-02-23T02:18:55;84360.81;;;-3.58;55.05
36526;BME280;74736;46.798;9.824;2024-02-23T02:21:21;84357.02;;;-3.81;55.44
36526;BME280;74736;46.798;9.824;2024-02-23T02:23:49;84354.34;;;-4.09;55.42
36526;BME280;74736;46.798;9.824;2024-02-23T02:26:15;84356.63;;;-3.79;54.63
36526;BME280;74736;46.798;9.824;2024-02-23T02:28:43;84355.81;;;-3.38;54.49
36526;BME280;74736;46.798;9.824;2024-02-23T02:31:09;84352.47;;;-3.86;55.40
36526;BME280;74736;46.798;9.824;2024-02-23T02:33:36;84352.14;;;-4.64;56.47
36526;BME280;74736;46.798;9.824;2024-02-23T02:36:03;84350.20;;;-4.70;56.85
36526;BME280;74736;46.798;9.824;2024-02-23T02:38:30;84349.47;;;-4.40;56.36
36526;BME280;74736;46.798;9.824;2024-02-23T02:40:58;84345.99;;;-3.78;56.44
36526;BME280;74736;46.798;9.824;2024-02-23T02:43:25;84341.37;;;-5.17;58.74
36526;BME280;74736;46.798;9.824;2024-02-23T02:45:53;84341.70;;;-5.43;60.14
36526;BME280;74736;46.798;9.824;2024-02-23T02:48:19;84337.83;;;-5.17;59.73
36526;BME280;74736;46.798;9.824;2024-02-23T02:50:47;84338.34;;;-5.03;59.32
36526;BME280;74736;46.798;9.824;2024-02-23T02:53:14;84336.55;;;-4.05;57.00
36526;BME280;74736;46.798;9.824;2024-02-23T02:55:42;84332.74;;;-4.74;58.05
36526;BME280;74736;46.798;9.824;2024-02-23T02:58:10;84331.38;;;-4.42;58.17
36526;BME280;74736;46.798;9.824;2024-02-23T03:00:38;84331.05;;;-4.82;58.84
36526;BME280;74736;46.798;9.824;2024-02-23T03:03:05;84330.67;;;-6.06;59.56
36526;BME280;74736;46.798;9.824;2024-02-23T03:05:32;84334.53;;;-4.74;58.99
36526;BME280;74736;46.798;9.824;2024-02-23T03:07:59;84330.14;;;-4.37;58.18
36526;BME280;74736;46.798;9.824;2024-02-23T03:10:26;84328.32;;;-4.20;56.31
36526;BME280;74736;46.798;9.824;2024-02-23T03:12:53;84330.27;;;-4.31;56.42
36526;BME280;74736;46.798;9.824;2024-02-23T03:15:20;84328.75;;;-4.01;55.93
36526;BME280;74736;46.798;9.824;2024-02-23T03:17:46;84332.73;;;-3.98;55.57
36526;BME280;74736;46.798;9.824;2024-02-23T03:20:15;84334.11;;;-5.23;58.73
36526;BME280;74736;46.798;9.824;2024-02-23T03:22:42;84325.09;;;-4.59;56.78
36526;BME280;74736;46.798;9.824;2024-02-23T03:25:10;84324.06;;;-4.66;56.93
36526;BME280;74736;46.798;9.824;2024-02-23T03:27:37;84327.27;;;-5.50;58.24
36526;BME280;74736;46.798;9.824;2024-02-23T03:30:06;84323.83;;;-4.17;56.17
36526;BME280;74736;46.798;9.824;2024-02-23T03:32:33;84328.74;;;-3.55;55.16
36526;BME280;74736;46.798;9.824;2024-02-23T03:34:59;84323.92;;;-3.90;55.83
36526;BME280;74736;46.798;9.824;2024-02-23T03:37:27;84315.65;;;-4.32;56.49
36526;BME280;74736;46.798;9.824;2024-02-23T03:39:54;84315.85;;;-4.95;57.52
36526;BME280;74736;46.798;9.824;2024-02-23T03:42:22;84309.10;;;-4.89;57.24
36526;BME280;74736;46.798;9.824;2024-02-23T03:44:48;84309.24;;;-3.87;55.74
36526;BME280;74736;46.798;9.824;2024-02-23T03:47:16;84315.72;;;-3.43;54.01
36526;BME280;74736;46.798;9.824;2024-02-23T03:49:43;84320.79;;;-3.55;53.92
36526;BME280;74736;46.798;9.824;2024-02-23T03:52:11;84321.94;;;-4.01;55.62
36526;BME280;74736;46.798;9.824;2024-02-23T03:54:38;84329.49;;;-4.39;56.35
36526;BME280;74736;46.798;9.824;2024-02-23T03:57:06;84328.62;;;-3.07;55.63
36526;BME280;74736;46.798;9.824;2024-02-23T03:59:32;84330.13;;;-3.73;55.00
36526;BME280;74736;46.798;9.824;2024-02-23T04:01:59;84325.75;;;-3.51;53.40
36526;BME280;74736;46.798;9.824;2024-02-23T04:04:27;84325.31;;;-3.32;52.80
36526;BME280;74736;46.798;9.824;2024-02-23T04:06:54;84325.25;;;-2.49;52.16
36526;BME280;74736;46.798;9.824;2024-02-23T04:09:21;84325.19;;;-3.87;56.64
36526;BME280;74736;46.798;9.824;2024-02-23T04:11:49;84324.95;;;-4.66;58.45
36526;BME280;74736;46.798;9.824;2024-02-23T04:14:16;84321.54;;;-3.82;56.27
36526;BME280;74736;46.798;9.824;2024-02-23T04:16:43;84317.39;;;-4.13;56.52
36526;BME280;74736;46.798;9.824;2024-02-23T04:19:10;84318.64;;;-4.68;56.59
36526;BME280;74736;46.798;9.824;2024-02-23T04:21:37;84325.37;;;-5.31;57.90
36526;BME280;74736;46.798;9.824;2024-02-23T04:24:03;84321.47;;;-4.62;57.57
36526;BME280;74736;46.798;9.824;2024-02-23T04:26:31;84320.98;;;-4.93;57.27
36526;BME280;74736;46.798;9.824;2024-02-23T04:28:57;84321.59;;;-4.45;56.19
36526;BME280;74736;46.798;9.824;2024-02-23T04:31:25;84323.81;;;-3.75;55.23
36526;BME280;74736;46.798;9.824;2024-02-23T04:33:51;84330.24;;;-3.62;54.99
36526;BME280;74736;46.798;9.824;2024-02-23T04:36:19;84332.73;;;-4.24;54.99
36526;BME280;74736;46.798;9.824;2024-02-23T04:38:46;84332.04;;;-2.99;52.96
36526;BME280;74736;46.798;9.824;2024-02-23T04:41:14;84330.38;;;-4.19;54.09
36526;BME280;74736;46.798;9.824;2024-02-23T04:43:41;84330.21;;;-4.83;54.93
36526;BME280;74736;46.798;9.824;2024-02-23T04:46:08;84333.89;;;-4.24;55.31
36526;BME280;74736;46.798;9.824;2024-02-23T04:48:35;84334.59;;;-3.59;54.42
36526;BME280;74736;46.798;9.824;2024-02-23T04:51:02;84334.04;;;-4.22;55.33
36526;BME280;74736;46.798;9.824;2024-02-23T04:53:30;84332.71;;;-3.72;53.71
36526;BME280;74736;46.798;9.824;2024-02-23T04:55:57;84330.52;;;-3.51;53.63
36526;BME280;74736;46.798;9.824;2024-02-23T04:58:23;84330.22;;;-3.66;52.77
36526;BME280;74736;46.798;9.824;2024-02-23T05:00:51;84331.24;;;-4.07;53.90
36526;BME280;74736;46.798;9.824;2024-02-23T05:03:17;84331.97;;;-4.56;55.90
36526;BME280;74736;46.798;9.824;2024-02-23T05:05:44;84336.21;;;-5.31;57.50
36526;BME280;74736;46.798;9.824;2024-02-23T05:08:11;84330.50;;;-4.89;56.56
36526;BME280;74736;46.798;9.824;2024-02-23T05:10:38;84328.02;;;-5.01;55.60
36526;BME280;74736;46.798;9.824;2024-02-23T05:13:05;84321.51;;;-4.01;54.70
36526;BME280;74736;46.798;9.824;2024-02-23T05:15:31;84317.91;;;-4.52;55.06
36526;BME280;74736;46.798;9.824;2024-02-23T05:17:58;84325.93;;;-5.20;57.70
36526;BME280;74736;46.798;9.824;2024-02-23T05:20:25;84318.52;;;-4.98;56.27
36526;BME280;74736;46.798;9.824;2024-02-23T05:22:51;84304.91;;;-4.18;54.60
36526;BME280;74736;46.798;9.824;2024-02-23T05:25:18;84310.52;;;-5.08;54.09
36526;BME280;74736;46.798;9.824;2024-02-23T05:27:45;84307.67;;;-4.89;53.57
36526;BME280;74736;46.798;9.824;2024-02-23T05:30:13;84304.23;;;-5.65;56.67
36526;BME280;74736;46.798;9.824;2024-02-23T05:32:40;84302.34;;;-5.68;56.69
36526;BME280;74736;46.798;9.824;2024-02-23T05:35:07;84295.04;;;-4.65;54.60
36526;BME280;74736;46.798;9.824;2024-02-23T05:37:35;84293.97;;;-4.16;53.29
36526;BME280;74736;46.798;9.824;2024-02-23T05:40:02;84299.32;;;-6.47;56.63
36526;BME280;74736;46.798;9.824;2024-02-23T05:42:29;84300.42;;;-5.53;58.77
36526;BME280;74736;46.798;9.824;2024-02-23T05:44:56;84304.60;;;-5.50;58.37
36526;BME280;74736;46.798;9.824;2024-02-23T05:47:23;84302.11;;;-6.15;58.60
36526;BME280;74736;46.798;9.824;2024-02-23T05:49:50;84293.23;;;-5.13;57.45
36526;BME280;74736;46.798;9.824;2024-02-23T05:52:18;84292.38;;;-4.77;56.10
36526;BME280;74736;46.798;9.824;2024-02-23T05:54:44;84300.73;;;-5.30;57.07
36526;BME280;74736;46.798;9.824;2024-02-23T05:57:11;84298.75;;;-5.08;56.06
36526;BME280;74736;46.798;9.824;2024-02-23T05:59:38;84298.44;;;-6.60;56.58
36526;BME280;74736;46.798;9.824;2024-02-23T06:02:05;84296.35;;;-5.09;56.75
36526;BME280;74736;46.798;9.824;2024-02-23T06:04:32;84292.86;;;-5.42;55.25
36526;BME280;74736;46.798;9.824;2024-02-23T06:06:58;84300.32;;;-5.42;57.35
36526;BME280;74736;46.798;9.824;2024-02-23T06:09:25;84310.26;;;-6.56;57.97
36526;BME280;74736;46.798;9.824;2024-02-23T06:11:52;84313.79;;;-5.19;57.09
36526;BME280;74736;46.798;9.824;2024-02-23T06:14:19;84319.41;;;-5.62;57.21
36526;BME280;74736;46.798;9.824;2024-02-23T06:16:46;84316.26;;;-4.88;55.10
36526;BME280;74736;46.798;9.824;2024-02-23T06:19:13;84319.45;;;-5.77;56.87
36526;BME280;74736;46.798;9.824;2024-02-23T06:21:40;84316.19;;;-5.73;54.70
36526;BME280;74736;46.798;9.824;2024-02-23T06:24:07;84319.27;;;-4.87;54.75
36526;BME280;74736;46.798;9.824;2024-02-23T06:26:34;84317.31;;;-4.53;53.89
36526;BME280;74736;46.798;9.824;2024-02-23T06:29:01;84319.47;;;-4.58;53.23
36526;BME280;74736;46.798;9.824;2024-02-23T06:31:29;84315.21;;;-4.24;53.62
36526;BME280;74736;46.798;9.824;2024-02-23T06:33:56;84314.04;;;-4.66;52.57
36526;BME280;74736;46.798;9.824;2024-02-23T06:36:23;84319.65;;;-5.08;52.94
36526;BME280;74736;46.798;9.824;2024-02-23T06:38:50;84321.61;;;-4.37;53.03
36526;BME280;74736;46.798;9.824;2024-02-23T06:41:18;84315.27;;;-4.47;53.05
36526;BME280;74736;46.798;9.824;2024-02-23T06:43:45;84317.20;;;-4.68;54.11
36526;BME280;74736;46.798;9.824;2024-02-23T06:46:12;84316.18;;;-5.72;55.42
36526;BME280;74736;46.798;9.824;2024-02-23T06:48:39;84314.23;;;-5.17;55.16
36526;BME280;74736;46.798;9.824;2024-02-23T06:51:06;84304.85;;;-4.59;53.62
36526;BME280;74736;46.798;9.824;2024-02-23T06:53:34;84295.13;;;-4.83;53.77
36526;BME280;74736;46.798;9.824;2024-02-23T06:56:02;84283.99;;;-4.60;53.13
36526;BME280;74736;46.798;9.824;2024-02-23T06:58:30;84280.85;;;-4.43;52.98
36526;BME280;74736;46.798;9.824;2024-02-23T07:00:56;84289.24;;;-3.61;51.48
36526;BME280;74736;46.798;9.824;2024-02-23T07:03:23;84292.91;;;-5.39;54.79
36526;BME280;74736;46.798;9.824;2024-02-23T07:05:50;84314.65;;;-6.42;56.53
36526;BME280;74736;46.798;9.824;2024-02-23T07:08:17;84326.78;;;-5.26;55.52
36526;BME280;74736;46.798;9.824;2024-02-23T07:10:45;84323.61;;;-4.65;53.74
36526;BME280;74736;46.798;9.824;2024-02-23T07:13:12;84316.96;;;-4.29;52.36
36526;BME280;74736;46.798;9.824;2024-02-23T07:15:38;84310.28;;;-4.36;52.77
36526;BME280;74736;46.798;9.824;2024-02-23T07:18:06;84308.18;;;-5.08;52.57
36526;BME280;74736;46.798;9.824;2024-02-23T07:20:34;84306.71;;;-5.23;52.25
36526;BME280;74736;46.798;9.824;2024-02-23T07:23:01;84307.45;;;-5.08;51.60
36526;BME280;74736;46.798;9.824;2024-02-23T07:25:28;84307.64;;;-4.56;52.37
36526;BME280;74736;46.798;9.824;2024-02-23T07:27:55;84304.94;;;-4.56;52.36
36526;BME280;74736;46.798;9.824;2024-02-23T07:30:22;84305.32;;;-4.94;52.80
36526;BME280;74736;46.798;9.824;2024-02-23T07:32:50;84302.44;;;-5.02;53.48
36526;BME280;74736;46.798;9.824;2024-02-23T07:35:17;84302.16;;;-5.02;53.55
36526;BME280;74736;46.798;9.824;2024-02-23T07:37:45;84303.78;;;-4.69;53.12
36526;BME280;74736;46.798;9.824;2024-02-23T07:40:12;84299.23;;;-5.22;54.38
36526;BME280;74736;46.798;9.824;2024-02-23T07:42:39;84298.50;;;-5.04;53.65
36526;BME280;74736;46.798;9.824;2024-02-23T07:45:07;84289.93;;;-5.12;53.78
36526;BME280;74736;46.798;9.824;2024-02-23T07:47:35;84277.89;;;-4.63;52.39
36526;BME280;74736;46.798;9.824;2024-02-23T07:50:02;84282.30;;;-6.59;55.94
36526;BME280;74736;46.798;9.824;2024-02-23T07:52:29;84294.00;;;-6.35;57.38
36526;BME280;74736;46.798;9.824;2024-02-23T07:54:56;84304.84;;;-6.13;56.82
36526;BME280;74736;46.798;9.824;2024-02-23T07:57:23;84322.49;;;-5.56;55.84
36526;BME280;74736;46.798;9.824;2024-02-23T07:59:50;84329.43;;;-5.98;56.93
36526;BME280;74736;46.798;9.824;2024-02-23T08:02:17;84337.31;;;-5.21;56.25
36526;BME280;74736;46.798;9.824;2024-02-23T08:04:45;84346.20;;;-5.80;57.37
36526;BME280;74736;46.798;9.824;2024-02-23T08:07:12;84337.89;;;-5.34;55.73
36526;BME280;74736;46.798;9.824;2024-02-23T08:09:39;84340.41;;;-4.92;54.22
36526;BME280;74736;46.798;9.824;2024-02-23T08:12:07;84349.31;;;-5.25;54.19
36526;BME280;74736;46.798;9.824;2024-02-23T08:14:34;84350.13;;;-5.46;54.11
36526;BME280;74736;46.798;9.824;2024-02-23T08:17:02;84339.44;;;-5.63;55.73
36526;BME280;74736;46.798;9.824;2024-02-23T08:19:28;84342.80;;;-5.33;54.43
36526;BME280;74736;46.798;9.824;2024-02-23T08:21:55;84338.47;;;-5.68;55.16
36526;BME280;74736;46.798;9.824;2024-02-23T08:24:22;84328.60;;;-4.16;53.28
36526;BME280;74736;46.798;9.824;2024-02-23T08:26:49;84329.18;;;-5.05;53.15
36526;BME280;74736;46.798;9.824;2024-02-23T08:29:16;84336.36;;;-5.98;55.61
36526;BME280;74736;46.798;9.824;2024-02-23T08:31:43;84348.98;;;-6.39;57.26
36526;BME280;74736;46.798;9.824;2024-02-23T08:34:10;84348.69;;;-5.53;54.85
36526;BME280;74736;46.798;9.824;2024-02-23T08:36:37;84343.83;;;-5.29;53.61
36526;BME280;74736;46.798;9.824;2024-02-23T08:39:05;84348.84;;;-5.58;53.51
36526;BME280;74736;46.798;9.824;2024-02-23T08:41:31;84353.88;;;-5.24;53.87
36526;BME280;74736;46.798;9.824;2024-02-23T08:43:59;84359.17;;;-4.64;52.33
36526;BME280;74736;46.798;9.824;2024-02-23T08:46:27;84357.02;;;-4.68;53.35
36526;BME280;74736;46.798;9.824;2024-02-23T08:48:54;84355.73;;;-5.60;52.57
36526;BME280;74736;46.798;9.824;2024-02-23T08:51:21;84351.47;;;-4.03;51.48
36526;BME280;74736;46.798;9.824;2024-02-23T08:53:48;84350.35;;;-5.23;52.88
36526;BME280;74736;46.798;9.824;2024-02-23T08:56:15;84347.92;;;-4.65;52.38
36526;BME280;74736;46.798;9.824;2024-02-23T08:58:42;84348.08;;;-5.77;53.09
36526;BME280;74736;46.798;9.824;2024-02-23T09:01:10;84342.54;;;-5.20;52.50
36526;BME280;74736;46.798;9.824;2024-02-23T09:03:37;84343.80;;;-4.77;52.74
36526;BME280;74736;46.798;9.824;2024-02-23T09:06:04;84351.91;;;-5.46;53.40
36526;BME280;74736;46.798;9.824;2024-02-23T09:08:31;84352.46;;;-5.18;52.18
36526;BME280;74736;46.798;9.824;2024-02-23T09:10:59;84355.43;;;-5.43;52.72
36526;BME280;74736;46.798;9.824;2024-02-23T09:13:26;84356.35;;;-5.40;53.03
36526;BME280;74736;46.798;9.824;2024-02-23T09:15:53;84359.73;;;-4.41;51.64
36526;BME280;74736;46.798;9.824;2024-02-23T09:18:20;84366.75;;;-5.06;51.15
36526;BME280;74736;46.798;9.824;2024-02-23T09:20:47;84370.01;;;-4.18;51.22
36526;BME280;74736;46.798;9.824;2024-02-23T09:23:14;84365.88;;;-4.64;50.32
36526;BME280;74736;46.798;9.824;2024-02-23T09:25:40;84360.77;;;-3.96;49.01
36526;BME280;74736;46.798;9.824;2024-02-23T09:28:08;84363.25;;;-5.63;51.52
36526;BME280;74736;46.798;9.824;2024-02-23T09:30:34;84364.94;;;-4.67;50.97
36526;BME280;74736;46.798;9.824;2024-02-23T09:33:02;84365.50;;;-4.65;50.59
36526;BME280;74736;46.798;9.824;2024-02-23T09:35:29;84364.42;;;-5.66;52.92
36526;BME280;74736;46.798;9.824;2024-02-23T09:37:55;84364.46;;;-5.17;53.89
36526;BME280;74736;46.798;9.824;2024-02-23T09:40:22;84370.09;;;-5.66;54.71
36526;BME280;74736;46.798;9.824;2024-02-23T09:42:55;84369.95;;;-5.81;56.04
36526;BME280;74736;46.798;9.824;2024-02-23T09:45:23;84371.26;;;-6.16;55.05
36526;BME280;74736;46.798;9.824;2024-02-23T09:47:51;84367.22;;;-5.44;53.70
36526;BME280;74736;46.798;9.824;2024-02-23T09:50:20;84368.79;;;-5.95;52.43
36526;BME280;74736;46.798;9.824;2024-02-23T09:52:48;84370.68;;;-5.20;51.13
36526;BME280;74736;46.798;9.824;2024-02-23T09:55:16;84375.36;;;-4.56;50.30
36526;BME280;74736;46.798;9.824;2024-02-23T09:57:44;84380.75;;;-4.20;49.57
36526;BME280;74736;46.798;9.824;2024-02-23T10:00:12;84381.79;;;-4.32;50.28
36526;BME280;74736;46.798;9.824;2024-02-23T10:02:40;84379.08;;;-4.60;50.40
36526;BME280;74736;46.798;9.824;2024-02-23T10:05:07;84381.12;;;-4.53;50.14
36526;BME280;74736;46.798;9.824;2024-02-23T10:07:34;84386.32;;;-4.62;51.64
36526;BME280;74736;46.798;9.824;2024-02-23T10:10:01;84388.12;;;-5.48;51.70
36526;BME280;74736;46.798;9.824;2024-02-23T10:12:28;84392.64;;;-5.00;51.87
36526;BME280;74736;46.798;9.824;2024-02-23T10:14:55;84394.87;;;-4.79;50.83
36526;BME280;74736;46.798;9.824;2024-02-23T10:17:21;84401.98;;;-4.36;49.93
36526;BME280;74736;46.798;9.824;2024-02-23T10:19:49;84407.43;;;-5.13;51.06
36526;BME280;74736;46.798;9.824;2024-02-23T10:22:16;84405.51;;;-4.79;50.58
36526;BME280;74736;46.798;9.824;2024-02-23T10:24:42;84407.79;;;-4.17;51.25
36526;BME280;74736;46.798;9.824;2024-02-23T10:27:10;84411.99;;;-4.07;50.90
36526;BME280;74736;46.798;9.824;2024-02-23T10:29:37;84412.21;;;-4.91;50.68
36526;BME280;74736;46.798;9.824;2024-02-23T10:32:05;84411.36;;;-4.75;50.63
36526;BME280;74736;46.798;9.824;2024-02-23T10:34:35;84413.26;;;-3.99;49.85
36526;BME280;74736;46.798;9.824;2024-02-23T10:37:05;84418.76;;;-4.27;50.84
36526;BME280;74736;46.798;9.824;2024-02-23T10:39:33;84419.74;;;-4.63;50.02
36526;BME280;74736;46.798;9.824;2024-02-23T10:42:03;84422.27;;;-5.37;51.26
36526;BME280;74736;46.798;9.824;2024-02-23T10:44:31;84427.98;;;-5.99;54.59
36526;BME280;74736;46.798;9.824;2024-02-23T10:46:59;84428.31;;;-5.17;53.65
36526;BME280;74736;46.798;9.824;2024-02-23T10:49:28;84427.89;;;-4.87;52.04
36526;BME280;74736;46.798;9.824;2024-02-23T10:51:55;84428.88;;;-5.69;53.87
36526;BME280;74736;46.798;9.824;2024-02-23T10:54:23;84431.93;;;-5.81;53.73
36526;BME280;74736;46.798;9.824;2024-02-23T10:56:51;84433.16;;;-6.98;58.87
36526;BME280;74736;46.798;9.824;2024-02-23T10:59:19;84429.59;;;-6.79;57.53
36526;BME280;74736;46.798;9.824;2024-02-23T11:01:48;84425.74;;;-6.20;56.09
36526;BME280;74736;46.798;9.824;2024-02-23T11:04:17;84419.89;;;-6.53;56.35
36526;BME280;74736;46.798;9.824;2024-02-23T11:06:49;84416.45;;;-6.87;57.79
36526;BME280;74736;46.798;9.824;2024-02-23T11:09:20;84418.74;;;-6.35;57.76
36526;BME280;74736;46.798;9.824;2024-02-23T11:11:52;84423.77;;;-6.59;57.52
36526;BME280;74736;46.798;9.824;2024-02-23T11:14:29;84429.57;;;-6.65;56.27
36526;BME280;74736;46.798;9.824;2024-02-23T11:16:57;84428.32;;;-6.59;56.61
36526;BME280;74736;46.798;9.824;2024-02-23T11:19:32;84437.78;;;-6.71;58.21
36526;BME280;74736;46.798;9.824;2024-02-23T11:21:59;84436.11;;;-6.47;57.46
36526;BME280;74736;46.798;9.824;2024-02-23T11:24:28;84439.39;;;-6.34;57.09
36526;BME280;74736;46.798;9.824;2024-02-23T11:26:56;84437.69;;;-5.21;55.04
36526;BME280;74736;46.798;9.824;2024-02-23T11:29:26;84435.98;;;-5.33;53.80
36526;BME280;74736;46.798;9.824;2024-02-23T11:31:53;84440.98;;;-5.32;54.74
36526;BME280;74736;46.798;9.824;2024-02-23T11:34:22;84438.21;;;-6.07;55.22
36526;BME280;74736;46.798;9.824;2024-02-23T11:36:51;84437.68;;;-5.95;55.82
36526;BME280;74736;46.798;9.824;2024-02-23T11:39:19;84437.60;;;-5.50;55.00
36526;BME280;74736;46.798;9.824;2024-02-23T11:41:48;84441.08;;;-6.69;57.03
36526;BME280;74736;46.798;9.824;2024-02-23T11:44:15;84429.87;;;-5.99;54.50
36526;BME280;74736;46.798;9.824;2024-02-23T11:46:43;84428.51;;;-6.28;52.14
36526;BME280;74736;46.798;9.824;2024-02-23T11:49:10;84442.20;;;-5.57;53.47
36526;BME280;74736;46.798;9.824;2024-02-23T11:51:38;84445.09;;;-6.44;55.27
36526;BME280;74736;46.798;9.824;2024-02-23T11:54:05;84439.55;;;-6.23;55.17
36526;BME280;74736;46.798;9.824;2024-02-23T11:56:33;84430.70;;;-6.14;54.21
36526;BME280;74736;46.798;9.824;2024-02-23T11:59:01;84427.06;;;-6.78;57.80
36526;BME280;74736;46.798;9.824;2024-02-23T12:01:29;84427.93;;;-7.10;55.53
36526;BME280;74736;46.798;9.824;2024-02-23T12:03:56;84439.65;;;-5.99;52.62
36526;BME280;74736;46.798;9.824;2024-02-23T12:06:23;84442.21;;;-6.47;54.17
36526;BME280;74736;46.798;9.824;2024-02-23T12:08:49;84421.37;;;-5.42;52.19
36526;BME280;74736;46.798;9.824;2024-02-23T12:11:17;84413.75;;;-5.47;50.99
36526;BME280;74736;46.798;9.824;2024-02-23T12:13:44;84429.16;;;-6.80;53.17
36526;BME280;74736;46.798;9.824;2024-02-23T12:16:11;84450.80;;;-7.10;53.92
36526;BME280;74736;46.798;9.824;2024-02-23T12:18:38;84454.33;;;-5.99;52.61
36526;BME280;74736;46.798;9.824;2024-02-23T12:21:05;84441.32;;;-6.36;54.05
36526;BME280;74736;46.798;9.824;2024-02-23T12:23:41;84424.43;;;-6.20;51.67
36526;BME280;74736;46.798;9.824;2024-02-23T12:26:09;84410.32;;;-6.23;49.05
36526;BME280;74736;46.798;9.824;2024-02-23T12:28:36;84396.52;;;-6.31;48.24
36526;BME280;74736;46.798;9.824;2024-02-23T12:31:04;84390.92;;;-6.20;48.82
36526;BME280;74736;46.798;9.824;2024-02-23T12:33:33;84400.50;;;-5.10;47.22
36526;BME280;74736;46.798;9.824;2024-02-23T12:36:01;84419.40;;;-5.35;46.36
36526;BME280;74736;46.798;9.824;2024-02-23T12:38:28;84425.01;;;-6.73;50.52
36526;BME280;74736;46.798;9.824;2024-02-23T12:40:56;84413.66;;;-5.67;49.60
36526;BME280;74736;46.798;9.824;2024-02-23T12:43:23;84401.21;;;-6.80;50.03
36526;BME280;74736;46.798;9.824;2024-02-23T12:45:52;84390.37;;;-5.72;48.73
36526;BME280;74736;46.798;9.824;2024-02-23T12:48:20;84391.43;;;-6.31;47.52
36526;BME280;74736;46.798;9.824;2024-02-23T12:50:48;84381.02;;;-4.74;46.50
36526;BME280;74736;46.798;9.824;2024-02-23T12:53:32;84386.47;;;-6.57;46.95
36526;BME280;74736;46.798;9.824;2024-02-23T12:56:00;84399.77;;;-5.37;49.14
36526;BME280;74736;46.798;9.824;2024-02-23T12:58:28;84400.57;;;-5.74;50.64
36526;BME280;74736;46.798;9.824;2024-02-23T13:00:56;84397.04;;;-6.39;51.53